createdAt,value
2022-09-12T00:01:03.669Z,80.46
2022-09-12T00:03:33.560Z,80.83
2022-09-12T00:06:00.152Z,80.53
2022-09-12T00:08:26.693Z,80.60
2022-09-12T00:10:53.130Z,80.45
2022-09-12T00:13:19.537Z,80.00
2022-09-12T00:15:45.992Z,80.34
2022-09-12T00:18:16.452Z,80.34
2022-09-12T00:20:47.369Z,80.49
2022-09-12T00:23:14.794Z,80.77
2022-09-12T00:25:45.710Z,80.96
2022-09-12T00:28:13.713Z,80.66
2022-09-12T00:30:44.625Z,81.16
2022-09-12T00:33:11.665Z,81.32
2022-09-12T00:35:46.046Z,81.23
2022-09-12T00:38:13.252Z,81.26
2022-09-12T00:40:40.295Z,81.91
2022-09-12T00:43:15.163Z,81.53
2022-09-12T00:45:44.568Z,81.68
2022-09-12T00:48:23.569Z,82.00
2022-09-12T00:50:50.462Z,82.12
2022-09-12T00:53:17.978Z,81.87
2022-09-12T00:55:49.300Z,82.01
2022-09-12T00:58:30.350Z,82.51
2022-09-12T01:00:59.668Z,82.62
2022-09-12T01:03:26.718Z,82.28
2022-09-12T01:05:59.582Z,82.48
2022-09-12T01:08:27.381Z,82.16
2022-09-12T01:10:55.538Z,82.27
2022-09-12T01:13:22.589Z,81.57
2022-09-12T01:15:49.200Z,82.22
2022-09-12T01:18:32.294Z,82.03
2022-09-12T01:21:22.779Z,82.23
2022-09-12T01:24:34.565Z,82.42
2022-09-12T01:27:22.924Z,82.39
2022-09-12T01:30:03.216Z,82.50
2022-09-12T01:32:47.066Z,82.08
2022-09-12T01:35:45.476Z,82.46
2022-09-12T01:38:20.994Z,82.29
2022-09-12T01:41:04.909Z,81.89
2022-09-12T01:43:44.099Z,82.51
2022-09-12T01:46:15.728Z,82.10
2022-09-12T01:48:57.195Z,82.66
2022-09-12T01:51:36.064Z,82.58
2022-09-12T01:54:11.567Z,82.35
2022-09-12T01:56:41.664Z,82.55
2022-09-12T01:59:18.825Z,82.40
2022-09-12T02:01:55.016Z,82.81
2022-09-12T02:04:33.997Z,82.87
2022-09-12T02:07:35.753Z,82.83
2022-09-12T02:10:13.750Z,82.79
2022-09-12T02:12:50.034Z,82.33
2022-09-12T02:15:20.642Z,82.65
2022-09-12T02:17:50.594Z,82.54
2022-09-12T02:20:46.908Z,82.55
2022-09-12T02:23:20.537Z,83.20
2022-09-12T02:25:50.950Z,83.21
2022-09-12T02:28:23.677Z,83.02
2022-09-12T02:31:09.513Z,83.03
2022-09-12T02:33:49.229Z,83.09
2022-09-12T02:36:23.983Z,83.05
2022-09-12T02:38:50.989Z,83.37
2022-09-12T02:41:20.663Z,83.56
2022-09-12T02:43:49.066Z,83.06
2022-09-12T02:46:40.862Z,83.41
2022-09-12T02:49:09.333Z,83.19
2022-09-12T02:51:36.289Z,83.29
2022-09-12T02:54:03.598Z,83.44
2022-09-12T02:56:31.245Z,83.78
2022-09-12T02:59:08.090Z,83.35
2022-09-12T03:01:58.758Z,83.30
2022-09-12T03:04:45.577Z,83.72
2022-09-12T03:07:50.590Z,83.90
2022-09-12T03:10:19.637Z,83.87
2022-09-12T03:13:15.222Z,83.45
2022-09-12T03:15:48.357Z,83.57
2022-09-12T03:18:39.461Z,84.16
2022-09-12T03:21:12.807Z,83.81
2022-09-12T03:23:51.631Z,84.23
2022-09-12T03:26:31.052Z,84.31
2022-09-12T03:28:59.164Z,84.55
2022-09-12T03:31:25.904Z,84.53
2022-09-12T03:33:52.381Z,84.71
2022-09-12T03:36:27.080Z,84.57
2022-09-12T03:38:53.702Z,84.87
2022-09-12T03:41:20.671Z,84.42
2022-09-12T03:43:47.634Z,84.81
2022-09-12T03:46:14.764Z,84.49
2022-09-12T03:48:41.715Z,84.75
2022-09-12T03:51:10.270Z,84.87
2022-09-12T03:53:36.846Z,84.71
2022-09-12T03:56:10.807Z,84.72
2022-09-12T03:58:38.209Z,85.04
2022-09-12T04:01:13.362Z,84.65
2022-09-12T04:03:44.996Z,84.74
2022-09-12T04:06:15.158Z,84.46
2022-09-12T04:08:43.119Z,84.68
2022-09-12T04:11:14.862Z,85.01
2022-09-12T04:13:43.599Z,85.29
2022-09-12T04:16:11.760Z,85.08
2022-09-12T04:18:38.778Z,85.04
2022-09-12T04:21:07.212Z,85.26
2022-09-12T04:23:34.672Z,85.08
2022-09-12T04:26:02.516Z,85.26
2022-09-12T04:28:30.087Z,85.50
2022-09-12T04:31:01.101Z,85.68
2022-09-12T04:33:27.515Z,85.59
2022-09-12T04:35:53.923Z,85.42
2022-09-12T04:38:20.310Z,85.77
2022-09-12T04:40:47.661Z,85.67
2022-09-12T04:43:14.718Z,86.00
2022-09-12T04:45:41.290Z,85.75
2022-09-12T04:48:07.709Z,86.08
2022-09-12T04:50:34.173Z,86.18
2022-09-12T04:53:00.599Z,86.03
2022-09-12T04:55:27.118Z,86.48
2022-09-12T04:57:53.540Z,86.51
2022-09-12T05:00:20.565Z,86.79
2022-09-12T05:02:47.149Z,86.61
2022-09-12T05:05:13.567Z,86.86
2022-09-12T05:07:40.406Z,86.91
2022-09-12T05:10:07.470Z,86.97
2022-09-12T05:12:33.914Z,87.26
2022-09-12T05:15:00.303Z,87.21
2022-09-12T05:17:29.386Z,87.19
2022-09-12T05:19:55.806Z,87.09
2022-09-12T05:22:22.807Z,87.50
2022-09-12T05:24:50.671Z,87.64
2022-09-12T05:27:20.543Z,87.84
2022-09-12T05:29:47.004Z,87.67
2022-09-12T05:32:13.497Z,87.95
2022-09-12T05:34:40.459Z,87.92
2022-09-12T05:37:06.927Z,88.24
2022-09-12T05:39:33.648Z,88.11
2022-09-12T05:42:00.073Z,87.84
2022-09-12T05:44:26.773Z,87.82
2022-09-12T05:46:53.621Z,87.75
2022-09-12T05:49:21.468Z,88.42
2022-09-12T05:51:48.411Z,88.39
2022-09-12T05:54:18.047Z,88.52
2022-09-12T05:56:45.426Z,88.30
2022-09-12T05:59:22.002Z,88.83
2022-09-12T06:01:48.968Z,88.67
2022-09-12T06:04:16.081Z,89.10
2022-09-12T06:06:46.947Z,89.33
2022-09-12T06:09:15.591Z,89.44
2022-09-12T06:11:42.401Z,89.61
2022-09-12T06:14:10.799Z,89.17
2022-09-12T06:16:38.186Z,89.33
2022-09-12T06:19:07.531Z,89.39
2022-09-12T06:21:35.499Z,89.33
2022-09-12T06:24:02.593Z,89.35
2022-09-12T06:26:29.579Z,89.74
2022-09-12T06:28:57.952Z,89.74
2022-09-12T06:31:33.724Z,89.38
2022-09-12T06:34:02.871Z,89.44
2022-09-12T06:36:31.865Z,89.76
2022-09-12T06:39:01.052Z,90.09
2022-09-12T06:41:28.186Z,89.97
2022-09-12T06:43:54.915Z,90.35
2022-09-12T06:46:21.621Z,90.19
2022-09-12T06:48:48.242Z,89.84
2022-09-12T06:51:16.755Z,90.17
2022-09-12T06:53:47.481Z,90.57
2022-09-12T06:56:16.901Z,90.94
2022-09-12T06:58:43.858Z,90.65
2022-09-12T07:01:13.161Z,91.09
2022-09-12T07:03:40.016Z,91.28
2022-09-12T07:06:08.160Z,91.69
2022-09-12T07:08:37.086Z,91.65
2022-09-12T07:11:23.960Z,91.73
2022-09-12T07:13:52.837Z,92.12
2022-09-12T07:16:20.341Z,91.48
2022-09-12T07:19:00.851Z,91.38
2022-09-12T07:21:28.100Z,90.69
2022-09-12T07:23:58.162Z,90.55
2022-09-12T07:26:27.480Z,89.80
2022-09-12T07:29:07.865Z,90.54
2022-09-12T07:31:42.540Z,89.89
2022-09-12T07:34:09.196Z,89.81
2022-09-12T07:36:36.081Z,89.87
2022-09-12T07:39:02.685Z,88.89
2022-09-12T07:41:31.177Z,88.98
2022-09-12T07:43:59.534Z,88.66
2022-09-12T07:46:27.788Z,88.77
2022-09-12T07:48:56.603Z,89.10
2022-09-12T07:51:25.422Z,88.74
2022-09-12T07:53:51.874Z,88.64
2022-09-12T07:56:19.901Z,88.20
2022-09-12T07:58:47.083Z,88.00
2022-09-12T08:01:23.205Z,86.92
2022-09-12T08:03:53.884Z,86.09
2022-09-12T08:06:24.177Z,86.06
2022-09-12T08:08:52.001Z,87.28
2022-09-12T08:11:21.848Z,85.93
2022-09-12T08:13:54.338Z,86.36
2022-09-12T08:16:23.151Z,84.95
2022-09-12T08:18:50.086Z,85.55
2022-09-12T08:21:19.558Z,85.98
2022-09-12T08:23:46.688Z,84.88
2022-09-12T08:26:13.717Z,84.05
2022-09-12T08:28:45.603Z,83.70
2022-09-12T08:31:17.786Z,83.22
2022-09-12T08:33:44.494Z,82.23
2022-09-12T08:36:16.210Z,83.40
2022-09-12T08:38:45.181Z,82.65
2022-09-12T08:41:44.307Z,82.20
2022-09-12T08:44:48.835Z,82.35
2022-09-12T08:47:38.389Z,79.76
2022-09-12T08:50:11.724Z,79.18
2022-09-12T08:52:50.319Z,78.96
2022-09-12T08:55:31.335Z,78.59
2022-09-12T08:58:00.722Z,77.55
2022-09-12T09:00:38.109Z,77.02
2022-09-12T09:03:04.749Z,76.31
2022-09-12T09:05:49.793Z,76.90
2022-09-12T09:08:36.139Z,77.63
2022-09-12T09:11:14.512Z,76.63
2022-09-12T09:14:21.917Z,76.21
2022-09-12T09:16:51.730Z,75.61
2022-09-12T09:19:31.648Z,75.79
2022-09-12T09:22:07.013Z,74.91
2022-09-12T09:24:43.449Z,74.76
2022-09-12T09:27:47.459Z,74.88
2022-09-12T09:30:17.298Z,73.95
2022-09-12T09:32:54.540Z,73.51
2022-09-12T09:35:43.521Z,73.39
2022-09-12T09:38:19.349Z,72.72
2022-09-12T09:41:14.990Z,72.51
2022-09-12T09:43:41.560Z,71.35
2022-09-12T09:46:08.304Z,71.43
2022-09-12T09:48:37.515Z,72.13
2022-09-12T09:51:07.114Z,70.75
2022-09-12T09:53:48.861Z,70.43
2022-09-12T09:56:33.616Z,70.38
2022-09-12T09:59:16.777Z,71.06
2022-09-12T10:01:50.071Z,71.14
2022-09-12T10:04:19.948Z,69.84
2022-09-12T10:06:47.020Z,69.77
2022-09-12T10:09:21.695Z,69.44
2022-09-12T10:11:49.819Z,70.05
2022-09-12T10:14:37.965Z,69.31
2022-09-12T10:17:25.430Z,68.64
2022-09-12T10:20:04.836Z,68.34
2022-09-12T10:22:39.967Z,67.34
2022-09-12T10:25:12.314Z,65.96
2022-09-12T10:27:38.758Z,66.28
2022-09-12T10:30:14.469Z,66.17
2022-09-12T10:32:46.327Z,67.04
2022-09-12T10:35:30.528Z,67.13
2022-09-12T10:38:06.388Z,65.25
2022-09-12T10:40:44.088Z,65.85
2022-09-12T10:43:38.022Z,66.39
2022-09-12T10:46:16.553Z,65.32
2022-09-12T10:48:44.154Z,64.98
2022-09-12T10:51:25.750Z,64.94
2022-09-12T10:53:54.786Z,65.25
2022-09-12T10:56:28.876Z,64.82
2022-09-12T10:59:02.673Z,64.77
2022-09-12T11:01:44.935Z,63.29
2022-09-12T11:04:14.037Z,63.58
2022-09-12T11:06:49.118Z,62.17
2022-09-12T11:09:40.340Z,61.58
2022-09-12T11:12:40.869Z,62.02
2022-09-12T11:15:13.289Z,60.82
2022-09-12T11:17:59.947Z,60.82
2022-09-12T11:20:57.179Z,61.48
2022-09-12T11:23:29.737Z,59.92
2022-09-12T11:26:19.001Z,58.05
2022-09-12T11:28:57.521Z,60.11
2022-09-12T11:31:52.275Z,58.02
2022-09-12T11:34:34.469Z,59.66
2022-09-12T11:37:20.739Z,58.40
2022-09-12T11:39:55.195Z,58.18
2022-09-12T11:42:39.244Z,56.56
2022-09-12T11:45:29.965Z,57.70
2022-09-12T11:48:03.877Z,58.28
2022-09-12T11:50:31.772Z,56.65
2022-09-12T11:53:06.144Z,57.37
2022-09-12T11:55:47.887Z,58.50
2022-09-12T11:58:16.035Z,57.15
2022-09-12T12:00:53.404Z,58.87
2022-09-12T12:03:44.967Z,57.56
2022-09-12T12:06:39.291Z,57.46
2022-09-12T12:09:05.909Z,56.24
2022-09-12T12:11:43.626Z,56.55
2022-09-12T12:14:20.777Z,55.83
2022-09-12T12:16:47.833Z,54.53
2022-09-12T12:19:14.197Z,56.47
2022-09-12T12:21:43.901Z,55.18
2022-09-12T12:24:10.380Z,54.08
2022-09-12T12:26:39.930Z,54.20
2022-09-12T12:29:18.377Z,53.77
2022-09-12T12:31:59.856Z,54.04
2022-09-12T12:34:43.524Z,53.31
2022-09-12T12:37:19.110Z,53.02
2022-09-12T12:39:48.504Z,51.95
2022-09-12T12:42:35.977Z,52.78
2022-09-12T12:45:23.502Z,52.44
2022-09-12T12:47:54.533Z,51.71
2022-09-12T12:50:27.377Z,51.17
2022-09-12T12:52:59.526Z,51.07
2022-09-12T12:55:50.272Z,52.42
2022-09-12T12:58:36.246Z,52.02
2022-09-12T13:01:17.032Z,50.75
2022-09-12T13:03:53.337Z,50.28
2022-09-12T13:06:37.592Z,51.73
2022-09-12T13:09:08.748Z,50.94
2022-09-12T13:11:38.490Z,51.88
2022-09-12T13:14:09.369Z,51.37
2022-09-12T13:19:17.571Z,50.14
2022-09-12T13:22:02.409Z,50.58
2022-09-12T13:24:28.885Z,50.15
2022-09-12T13:26:55.390Z,49.27
2022-09-12T13:29:24.851Z,50.00
2022-09-12T13:31:55.365Z,48.55
2022-09-12T13:34:31.326Z,49.18
2022-09-12T13:37:19.776Z,49.15
2022-09-12T13:39:46.537Z,49.10
2022-09-12T13:42:42.626Z,49.37
2022-09-12T13:45:24.277Z,49.81
2022-09-12T13:47:58.712Z,49.64
2022-09-12T13:50:33.018Z,48.02
2022-09-12T13:53:04.487Z,48.05
2022-09-12T13:55:39.151Z,47.74
2022-09-12T13:58:15.236Z,48.73
2022-09-12T14:00:41.882Z,48.23
2022-09-12T14:03:48.014Z,48.90
2022-09-12T14:06:18.973Z,47.97
2022-09-12T14:08:47.951Z,48.14
2022-09-12T14:11:31.010Z,48.26
2022-09-12T14:13:58.248Z,47.86
2022-09-12T14:16:28.371Z,48.53
2022-09-12T14:18:55.118Z,47.82
2022-09-12T14:21:36.368Z,47.16
2022-09-12T14:24:06.903Z,47.73
2022-09-12T14:26:35.501Z,48.80
2022-09-12T14:29:05.692Z,47.60
2022-09-12T14:31:35.135Z,48.07
2022-09-12T14:34:14.968Z,47.90
2022-09-12T14:36:45.508Z,48.11
2022-09-12T14:39:17.701Z,48.11
2022-09-12T14:41:44.414Z,48.77
2022-09-12T14:44:19.303Z,49.04
2022-09-12T14:46:47.289Z,48.71
2022-09-12T14:49:18.348Z,49.47
2022-09-12T14:51:51.484Z,49.35
2022-09-12T14:54:30.335Z,48.29
2022-09-12T14:57:02.388Z,48.82
2022-09-12T14:59:33.326Z,48.89
2022-09-12T15:02:21.856Z,48.70
2022-09-12T15:05:16.233Z,48.16
2022-09-12T15:08:04.455Z,48.25
2022-09-12T15:10:36.597Z,48.83
2022-09-12T15:13:05.794Z,47.06
2022-09-12T15:15:32.891Z,47.47
2022-09-12T15:18:02.305Z,47.76
2022-09-12T15:20:32.002Z,46.52
2022-09-12T15:22:58.905Z,47.85
2022-09-12T15:25:25.322Z,47.74
2022-09-12T15:27:53.477Z,48.05
2022-09-12T15:30:19.952Z,49.45
2022-09-12T15:32:46.409Z,49.29
2022-09-12T15:35:22.829Z,49.60
2022-09-12T15:37:49.888Z,49.86
2022-09-12T15:40:17.248Z,49.53
2022-09-12T15:42:44.006Z,49.09
2022-09-12T15:45:24.030Z,49.13
2022-09-12T15:47:50.597Z,48.02
2022-09-12T15:50:17.017Z,48.71
2022-09-12T15:52:44.348Z,49.24
2022-09-12T15:55:19.574Z,48.77
2022-09-12T15:57:46.463Z,48.13
2022-09-12T16:00:14.370Z,48.07
2022-09-12T16:02:41.027Z,48.82
2022-09-12T16:05:14.274Z,48.21
2022-09-12T16:07:40.756Z,48.38
2022-09-12T16:10:07.700Z,47.23
2022-09-12T16:12:34.189Z,46.63
2022-09-12T16:15:00.713Z,47.43
2022-09-12T16:17:27.131Z,47.14
2022-09-12T16:19:53.592Z,47.15
2022-09-12T16:22:20.046Z,46.47
2022-09-12T16:24:46.473Z,46.98
2022-09-12T16:27:13.001Z,46.59
2022-09-12T16:29:39.451Z,47.17
2022-09-12T16:32:13.313Z,46.57
2022-09-12T16:34:39.708Z,47.08
2022-09-12T16:37:06.301Z,47.29
2022-09-12T16:39:34.454Z,47.13
2022-09-12T16:42:00.878Z,48.48
2022-09-12T16:44:27.421Z,46.75
2022-09-12T16:46:53.897Z,47.14
2022-09-12T16:49:21.699Z,48.47
2022-09-12T16:51:48.113Z,47.69
2022-09-12T16:54:15.724Z,48.84
2022-09-12T16:56:42.195Z,48.81
2022-09-12T16:59:12.078Z,50.01
2022-09-12T17:01:38.719Z,49.70
2022-09-12T17:04:05.483Z,51.13
2022-09-12T17:06:33.351Z,50.89
2022-09-12T17:09:01.610Z,51.85
2022-09-12T17:11:34.688Z,51.62
2022-09-12T17:14:06.467Z,51.96
2022-09-12T17:16:52.157Z,52.76
2022-09-12T17:19:22.107Z,53.79
2022-09-12T17:21:49.984Z,52.77
2022-09-12T17:24:19.967Z,53.45
2022-09-12T17:26:46.558Z,54.68
2022-09-12T17:29:16.596Z,54.64
2022-09-12T17:31:44.073Z,55.82
2022-09-12T17:34:14.373Z,54.98
2022-09-12T17:36:44.217Z,54.59
2022-09-12T17:39:11.673Z,55.53
2022-09-12T17:41:38.476Z,56.53
2022-09-12T17:44:07.332Z,56.70
2022-09-12T17:46:38.661Z,57.39
2022-09-12T17:49:08.785Z,57.91
2022-09-12T17:51:35.469Z,59.05
2022-09-12T17:54:16.962Z,59.15
2022-09-12T17:56:45.911Z,60.23
2022-09-12T17:59:21.735Z,60.50
2022-09-12T18:02:07.527Z,61.26
2022-09-12T18:04:34.394Z,61.39
2022-09-12T18:07:00.900Z,61.48
2022-09-12T18:09:28.348Z,61.38
2022-09-12T18:11:55.247Z,61.24
2022-09-12T18:14:22.391Z,62.42
2022-09-12T18:16:49.656Z,62.80
2022-09-12T18:19:16.496Z,62.56
2022-09-12T18:21:42.922Z,62.52
2022-09-12T18:24:10.645Z,62.15
2022-09-12T18:26:37.883Z,63.19
2022-09-12T18:29:04.641Z,63.26
2022-09-12T18:31:31.423Z,63.99
2022-09-12T18:34:00.266Z,64.95
2022-09-12T18:36:27.623Z,64.95
2022-09-12T18:38:54.268Z,65.40
2022-09-12T18:41:23.393Z,65.81
2022-09-12T18:43:57.637Z,65.80
2022-09-12T18:46:25.100Z,66.84
2022-09-12T18:48:52.268Z,66.92
2022-09-12T18:51:20.998Z,67.04
2022-09-12T18:53:56.315Z,66.82
2022-09-12T18:56:25.529Z,66.87
2022-09-12T18:58:54.506Z,67.29
2022-09-12T19:01:22.039Z,67.11
2022-09-12T19:03:49.466Z,67.44
2022-09-12T19:06:22.580Z,67.21
2022-09-12T19:08:50.209Z,67.29
2022-09-12T19:11:17.854Z,67.82
2022-09-12T19:13:46.229Z,68.10
2022-09-12T19:16:16.895Z,68.25
2022-09-12T19:18:43.708Z,68.05
2022-09-12T19:21:39.428Z,68.05
2022-09-12T19:24:10.150Z,68.45
2022-09-12T19:26:38.110Z,68.64
2022-09-12T19:29:05.333Z,68.86
2022-09-12T19:31:32.119Z,69.09
2022-09-12T19:34:03.515Z,69.12
2022-09-12T19:36:47.039Z,69.43
2022-09-12T19:39:16.239Z,69.93
2022-09-12T19:41:43.680Z,69.97
2022-09-12T19:44:10.415Z,69.24
2022-09-12T19:50:43.130Z,69.69
2022-09-12T19:53:09.571Z,69.94
2022-09-12T19:56:38.738Z,69.81
2022-09-12T20:03:16.220Z,69.60
2022-09-12T20:06:05.473Z,69.75
2022-09-12T20:08:47.359Z,69.95
2022-09-12T20:11:31.614Z,69.92
2022-09-12T20:14:34.912Z,70.06
2022-09-12T20:17:01.441Z,69.75
2022-09-12T20:19:28.217Z,70.23
2022-09-12T20:21:54.630Z,70.08
2022-09-12T20:24:21.086Z,70.43
2022-09-12T20:26:47.660Z,70.33
2022-09-12T20:29:14.379Z,70.51
2022-09-12T20:31:42.324Z,70.63
2022-09-12T20:34:15.418Z,70.98
2022-09-12T20:36:42.362Z,71.24
2022-09-12T20:39:14.062Z,71.51
2022-09-12T20:41:40.506Z,71.47
2022-09-12T20:44:06.920Z,71.42
2022-09-12T20:46:33.694Z,71.55
2022-09-12T20:49:00.113Z,71.51
2022-09-12T20:51:27.261Z,71.63
2022-09-12T20:53:54.681Z,71.75
2022-09-12T20:56:21.980Z,72.06
2022-09-12T20:58:48.406Z,71.99
2022-09-12T21:01:15.900Z,72.36
2022-09-12T21:03:43.688Z,71.95
2022-09-12T21:06:12.542Z,72.60
2022-09-12T21:08:39.358Z,72.93
2022-09-12T21:11:07.042Z,73.28
2022-09-12T21:13:33.942Z,73.23
2022-09-12T21:16:03.455Z,73.48
2022-09-12T21:18:31.535Z,72.92
2022-09-12T21:20:58.071Z,73.30
2022-09-12T21:23:25.533Z,73.56
2022-09-12T21:25:52.842Z,73.34
2022-09-12T21:28:20.412Z,73.07
2022-09-12T21:30:50.781Z,73.53
2022-09-12T21:33:19.167Z,73.86
2022-09-12T21:35:47.213Z,74.00
2022-09-12T21:38:17.588Z,74.05
2022-09-12T21:40:44.151Z,74.07
2022-09-12T21:43:13.037Z,74.51
2022-09-12T21:45:40.414Z,74.83
2022-09-12T21:48:07.038Z,74.71
2022-09-12T21:50:33.503Z,75.03
2022-09-12T21:52:59.933Z,75.06
2022-09-12T21:55:27.263Z,74.57
2022-09-12T21:57:54.792Z,74.54
2022-09-12T22:00:21.414Z,74.50
2022-09-12T22:02:48.792Z,74.56
2022-09-12T22:05:15.652Z,74.47
2022-09-12T22:07:42.230Z,74.52
2022-09-12T22:10:09.186Z,74.27
2022-09-12T22:12:35.683Z,73.43
2022-09-12T22:15:17.531Z,73.30
2022-09-12T22:17:48.635Z,73.42
2022-09-12T22:20:15.106Z,73.88
2022-09-12T22:23:00.103Z,73.91
2022-09-12T22:25:26.643Z,73.85
2022-09-12T22:27:54.479Z,74.06
2022-09-12T22:30:22.544Z,73.59
2022-09-12T22:32:51.138Z,73.17
2022-09-12T22:35:18.403Z,72.41
2022-09-12T22:37:46.511Z,72.66
2022-09-12T22:40:13.149Z,72.67
2022-09-12T22:42:39.710Z,72.75
2022-09-12T22:45:07.658Z,72.77
2022-09-12T22:47:34.159Z,72.20
2022-09-12T22:50:00.694Z,72.74
2022-09-12T22:52:27.216Z,72.40
2022-09-12T22:54:53.702Z,72.75
2022-09-12T22:57:20.183Z,72.72
2022-09-12T22:59:46.663Z,72.86
2022-09-12T23:02:13.381Z,72.39
2022-09-12T23:04:40.044Z,71.76
2022-09-12T23:07:06.639Z,72.18
2022-09-12T23:09:35.446Z,72.05
2022-09-12T23:12:02.730Z,72.10
2022-09-12T23:14:29.320Z,72.60
2022-09-12T23:16:55.773Z,72.58
2022-09-12T23:19:22.292Z,72.94
2022-09-12T23:21:48.767Z,73.40
2022-09-12T23:24:15.410Z,73.41
2022-09-12T23:26:41.854Z,73.32
2022-09-12T23:29:08.837Z,73.44
2022-09-12T23:31:35.336Z,74.11
2022-09-12T23:34:05.803Z,74.14
2022-09-12T23:36:32.460Z,74.38
2022-09-12T23:38:58.898Z,74.09
2022-09-12T23:41:25.492Z,74.41
2022-09-12T23:43:51.922Z,74.24
2022-09-12T23:46:19.961Z,74.42
2022-09-12T23:48:46.606Z,74.72
2022-09-12T23:51:13.598Z,74.65
2022-09-12T23:53:40.510Z,74.88
2022-09-12T23:56:07.609Z,75.09
2022-09-12T23:58:34.066Z,75.10
